createdAt,value
2018-12-17T00:02:09.898Z,32.93
2018-12-17T00:04:44.259Z,31.70
2018-12-17T00:07:18.910Z,28.70
2018-12-17T00:09:54.286Z,29.90
2018-12-17T00:12:28.781Z,31.90
2018-12-17T00:15:03.753Z,31.23
2018-12-17T00:17:38.060Z,30.50
2018-12-17T00:20:16.563Z,28.20
2018-12-17T00:22:50.769Z,28.47
2018-12-17T00:25:25.666Z,30.20
2018-12-17T00:27:59.841Z,27.27
2018-12-17T00:30:35.507Z,28.97
2018-12-17T00:33:09.777Z,27.93
2018-12-17T00:35:44.125Z,26.23
2018-12-17T00:38:18.639Z,27.10
2018-12-17T00:40:53.257Z,27.47
2018-12-17T00:43:27.867Z,23.53
2018-12-17T00:46:05.258Z,24.07
2018-12-17T00:48:39.747Z,24.27
2018-12-17T00:51:14.429Z,26.50
2018-12-17T00:53:52.122Z,29.53
2018-12-17T00:56:26.294Z,24.20
2018-12-17T00:59:00.799Z,28.50
2018-12-17T01:01:35.121Z,23.67
2018-12-17T01:04:10.389Z,22.53
2018-12-17T01:06:44.747Z,26.10
2018-12-17T01:09:19.106Z,24.20
2018-12-17T01:11:53.505Z,23.30
2018-12-17T01:14:27.861Z,25.13
2018-12-17T01:17:04.241Z,26.00
2018-12-17T01:19:38.607Z,25.93
2018-12-17T01:22:13.109Z,26.80
2018-12-17T01:24:47.573Z,31.93
2018-12-17T01:27:23.613Z,29.90
2018-12-17T01:29:57.889Z,23.93
2018-12-17T01:32:32.437Z,28.60
2018-12-17T01:35:08.925Z,24.00
2018-12-17T01:37:43.336Z,27.63
2018-12-17T01:40:17.714Z,26.17
2018-12-17T01:42:53.891Z,24.63
2018-12-17T01:45:28.200Z,24.80
2018-12-17T01:48:02.449Z,23.70
2018-12-17T01:50:37.626Z,25.83
2018-12-17T01:53:11.842Z,26.80
2018-12-17T01:55:46.178Z,26.43
2018-12-17T01:58:20.628Z,26.43
2018-12-17T02:00:55.023Z,26.43
2018-12-17T02:03:30.943Z,24.67
2018-12-17T02:06:05.180Z,23.53
2018-12-17T02:08:39.846Z,23.07
2018-12-17T02:11:14.386Z,28.00
2018-12-17T02:13:48.889Z,25.27
2018-12-17T02:16:23.132Z,20.57
2018-12-17T02:18:57.750Z,26.00
2018-12-17T02:21:32.207Z,26.50
2018-12-17T02:24:06.587Z,23.90
2018-12-17T02:26:40.793Z,25.17
2018-12-17T02:29:15.053Z,28.90
2018-12-17T02:31:51.781Z,23.53
2018-12-17T02:34:26.690Z,17.80
2018-12-17T02:37:00.976Z,22.87
2018-12-17T02:39:35.226Z,22.80
2018-12-17T02:42:09.478Z,24.50
2018-12-17T02:44:43.711Z,24.70
2018-12-17T02:47:18.087Z,20.67
2018-12-17T02:49:52.386Z,26.77
2018-12-17T02:52:26.638Z,29.07
2018-12-17T02:55:02.429Z,25.40
2018-12-17T02:57:37.003Z,21.93
2018-12-17T03:00:11.739Z,21.73
2018-12-17T03:02:46.050Z,19.77
2018-12-17T03:05:20.603Z,20.47
2018-12-17T03:07:56.992Z,22.50
2018-12-17T03:10:31.488Z,22.00
2018-12-17T03:13:06.024Z,20.33
2018-12-17T03:15:44.652Z,18.27
2018-12-17T03:18:19.053Z,20.30
2018-12-17T03:20:54.093Z,17.63
2018-12-17T03:23:28.503Z,24.20
2018-12-17T03:26:02.935Z,20.30
2018-12-17T03:28:37.382Z,23.27
2018-12-17T03:31:11.902Z,24.20
2018-12-17T03:33:47.419Z,21.03
2018-12-17T03:36:21.826Z,19.20
2018-12-17T03:38:56.154Z,21.57
2018-12-17T03:41:30.692Z,20.87
2018-12-17T03:44:06.110Z,22.57
2018-12-17T03:46:40.519Z,21.33
2018-12-17T03:49:14.811Z,20.80
2018-12-17T03:51:48.993Z,22.43
2018-12-17T03:54:23.284Z,24.50
2018-12-17T03:56:59.767Z,23.60
2018-12-17T03:59:34.081Z,21.67
2018-12-17T04:02:08.429Z,19.73
2018-12-17T04:04:43.848Z,23.87
2018-12-17T04:07:18.134Z,23.07
2018-12-17T04:09:53.995Z,20.83
2018-12-17T04:12:28.265Z,21.90
2018-12-17T04:15:02.641Z,20.80
2018-12-17T04:17:37.069Z,19.90
2018-12-17T04:20:11.390Z,21.37
2018-12-17T04:22:45.732Z,24.83
2018-12-17T04:25:20.027Z,18.80
2018-12-17T04:27:54.297Z,19.73
2018-12-17T04:30:28.652Z,20.77
2018-12-17T04:33:03.098Z,19.27
2018-12-17T04:35:37.658Z,21.03
2018-12-17T04:38:12.004Z,22.40
2018-12-17T04:40:46.570Z,26.20
2018-12-17T04:43:20.750Z,24.93
2018-12-17T04:45:56.689Z,22.80
2018-12-17T04:48:30.988Z,23.70
2018-12-17T04:51:06.411Z,24.33
2018-12-17T04:53:40.661Z,22.40
2018-12-17T04:56:15.059Z,22.83
2018-12-17T04:58:49.422Z,27.77
2018-12-17T05:01:24.048Z,23.97
2018-12-17T05:03:58.385Z,19.97
2018-12-17T05:06:32.841Z,22.87
2018-12-17T05:09:08.400Z,20.63
2018-12-17T05:11:44.562Z,21.80
2018-12-17T05:14:18.781Z,22.10
2018-12-17T05:16:55.048Z,22.30
2018-12-17T05:19:29.242Z,20.40
2018-12-17T05:22:03.656Z,19.40
2018-12-17T05:24:38.241Z,17.87
2018-12-17T05:27:13.914Z,20.30
2018-12-17T05:29:48.173Z,18.87
2018-12-17T05:32:24.537Z,20.80
2018-12-17T05:34:58.825Z,17.90
2018-12-17T05:37:34.835Z,20.00
2018-12-17T05:40:09.253Z,17.90
2018-12-17T05:42:43.793Z,25.10
2018-12-17T05:45:18.088Z,17.53
2018-12-17T05:47:52.429Z,17.90
2018-12-17T05:50:28.751Z,18.90
2018-12-17T05:53:03.226Z,18.60
2018-12-17T05:55:37.661Z,20.77
2018-12-17T05:58:14.043Z,18.67
2018-12-17T06:00:48.275Z,19.03
2018-12-17T06:03:23.197Z,15.90
2018-12-17T06:05:58.226Z,15.03
2018-12-17T06:08:32.590Z,17.23
2018-12-17T06:11:06.803Z,15.90
2018-12-17T06:13:41.074Z,14.63
2018-12-17T06:16:15.792Z,16.40
2018-12-17T06:18:50.508Z,15.87
2018-12-17T06:21:25.063Z,17.43
2018-12-17T06:23:59.370Z,13.70
2018-12-17T06:26:33.549Z,15.30
2018-12-17T06:29:10.026Z,19.30
2018-12-17T06:31:44.523Z,17.53
2018-12-17T06:34:18.818Z,17.77
2018-12-17T06:36:53.200Z,14.20
2018-12-17T06:39:27.449Z,13.40
2018-12-17T06:42:01.820Z,14.20
2018-12-17T06:44:37.429Z,10.87
2018-12-17T06:47:11.914Z,8.40
2018-12-17T06:49:46.185Z,8.57
2018-12-17T06:52:20.525Z,9.70
2018-12-17T06:54:55.135Z,10.10
2018-12-17T06:57:29.546Z,8.43
2018-12-17T07:00:05.588Z,9.47
2018-12-17T07:02:39.891Z,9.90
2018-12-17T07:05:14.270Z,8.20
2018-12-17T07:07:48.603Z,8.13
2018-12-17T07:10:25.047Z,10.73
2018-12-17T07:12:59.322Z,11.10
2018-12-17T07:15:33.713Z,12.13
2018-12-17T07:18:08.041Z,9.27
2018-12-17T07:20:42.277Z,8.27
2018-12-17T07:23:16.566Z,10.93
2018-12-17T07:25:50.877Z,12.07
2018-12-17T07:28:25.187Z,14.97
2018-12-17T07:30:59.421Z,11.20
2018-12-17T07:33:33.613Z,10.10
2018-12-17T07:36:07.865Z,17.03
2018-12-17T07:38:42.126Z,11.10
2018-12-17T07:41:16.485Z,12.07
2018-12-17T07:43:50.959Z,13.60
2018-12-17T07:46:25.333Z,11.57
2018-12-17T07:48:59.629Z,11.70
2018-12-17T07:51:33.857Z,12.80
2018-12-17T07:54:08.213Z,14.93
2018-12-17T07:56:42.441Z,9.77
2018-12-17T07:59:16.814Z,28.73
2018-12-17T08:01:51.258Z,14.90
2018-12-17T08:04:25.453Z,11.70
2018-12-17T08:06:59.881Z,13.27
2018-12-17T08:09:35.525Z,13.93
2018-12-17T08:12:09.761Z,18.77
2018-12-17T08:14:44.107Z,13.87
2018-12-17T08:17:18.326Z,11.70
2018-12-17T08:19:52.714Z,13.90
2018-12-17T08:22:27.422Z,11.63
2018-12-17T08:25:02.282Z,15.70
2018-12-17T08:27:36.678Z,12.67
2018-12-17T08:30:11.129Z,12.83
2018-12-17T08:32:46.735Z,10.80
2018-12-17T08:35:21.114Z,11.20
2018-12-17T08:37:55.338Z,12.77
2018-12-17T08:40:29.670Z,12.47
2018-12-17T08:43:04.163Z,10.60
2018-12-17T08:45:38.438Z,12.57
2018-12-17T08:48:12.979Z,12.53
2018-12-17T08:50:47.233Z,14.60
2018-12-17T08:53:21.973Z,10.33
2018-12-17T08:55:56.913Z,9.40
2018-12-17T08:58:31.275Z,12.27
2018-12-17T09:01:06.445Z,11.07
2018-12-17T09:03:40.769Z,13.40
2018-12-17T09:06:15.507Z,12.37
2018-12-17T09:08:50.042Z,13.20
2018-12-17T09:11:25.477Z,13.70
2018-12-17T09:13:59.855Z,8.30
2018-12-17T09:16:35.725Z,13.23
2018-12-17T09:19:10.025Z,11.87
2018-12-17T09:21:44.314Z,16.40
2018-12-17T09:24:18.640Z,11.90
2018-12-17T09:26:53.082Z,12.53
2018-12-17T09:29:33.640Z,13.23
2018-12-17T09:32:08.059Z,14.67
2018-12-17T09:34:42.417Z,29.37
2018-12-17T09:37:16.886Z,15.70
2018-12-17T09:39:57.973Z,12.77
2018-12-17T09:42:32.254Z,13.33
2018-12-17T09:45:07.393Z,13.20
2018-12-17T09:47:42.046Z,11.90
2018-12-17T09:50:16.732Z,13.10
2018-12-17T09:52:51.346Z,10.87
2018-12-17T09:55:25.617Z,9.47
2018-12-17T09:57:59.981Z,10.90
2018-12-17T10:00:34.373Z,9.13
2018-12-17T10:03:08.641Z,8.90
2018-12-17T10:05:42.999Z,10.53
2018-12-17T10:08:17.271Z,9.10
2018-12-17T10:10:51.662Z,7.43
2018-12-17T10:13:25.881Z,8.43
2018-12-17T10:16:00.250Z,9.73
2018-12-17T10:18:37.011Z,9.40
2018-12-17T10:21:11.424Z,10.80
2018-12-17T10:23:46.009Z,10.07
2018-12-17T10:26:22.490Z,10.20
2018-12-17T10:28:56.645Z,11.50
2018-12-17T10:31:31.729Z,10.77
2018-12-17T10:34:06.148Z,12.50
2018-12-17T10:36:40.477Z,11.03
2018-12-17T10:39:15.116Z,11.63
2018-12-17T10:41:51.754Z,8.63
2018-12-17T10:44:25.997Z,19.03
2018-12-17T10:47:00.201Z,16.57
2018-12-17T10:49:34.789Z,10.20
2018-12-17T10:52:09.165Z,11.80
2018-12-17T10:54:43.493Z,9.60
2018-12-17T10:57:17.997Z,10.30
2018-12-17T10:59:52.194Z,8.70
2018-12-17T11:02:30.646Z,9.63
2018-12-17T11:05:09.666Z,10.93
2018-12-17T11:07:44.143Z,9.10
2018-12-17T11:10:18.469Z,10.53
2018-12-17T11:12:52.660Z,10.07
2018-12-17T11:15:27.077Z,9.50
2018-12-17T11:18:01.303Z,9.73
2018-12-17T11:20:35.593Z,12.40
2018-12-17T11:23:09.965Z,11.50
2018-12-17T11:25:44.415Z,14.10
2018-12-17T11:28:20.726Z,14.60
2018-12-17T11:30:55.085Z,15.23
2018-12-17T11:33:29.429Z,15.03
2018-12-17T11:36:05.058Z,12.83
2018-12-17T11:38:39.433Z,15.20
2018-12-17T11:41:14.053Z,14.00
2018-12-17T11:43:48.564Z,14.10
2018-12-17T11:46:25.226Z,13.67
2018-12-17T11:48:59.511Z,15.63
2018-12-17T11:51:33.858Z,17.67
2018-12-17T11:54:08.262Z,16.30
2018-12-17T11:58:24.056Z,20.30
2018-12-17T12:01:05.870Z,17.73
2018-12-17T12:03:43.273Z,16.00
2018-12-17T12:06:17.635Z,17.20
2018-12-17T12:08:51.909Z,17.27
2018-12-17T12:11:26.257Z,17.93
2018-12-17T12:14:01.774Z,17.33
2018-12-17T12:16:36.182Z,17.70
2018-12-17T12:19:10.622Z,19.07
2018-12-17T12:21:45.018Z,18.80
2018-12-17T12:24:20.502Z,18.97
2018-12-17T12:26:54.780Z,17.17
2018-12-17T12:29:29.139Z,18.73
2018-12-17T12:32:03.393Z,20.07
2018-12-17T12:34:37.765Z,19.57
2018-12-17T12:37:12.262Z,19.13
2018-12-17T12:39:47.949Z,17.77
2018-12-17T12:42:22.413Z,19.37
2018-12-17T12:44:56.605Z,17.43
2018-12-17T12:47:30.841Z,20.00
2018-12-17T12:50:06.691Z,17.00
2018-12-17T12:52:41.046Z,21.70
2018-12-17T12:55:15.310Z,20.70
2018-12-17T12:57:49.642Z,18.00
2018-12-17T13:00:25.323Z,18.53
2018-12-17T13:02:59.522Z,18.53
2018-12-17T13:05:34.349Z,20.90
2018-12-17T13:08:08.639Z,18.90
2018-12-17T13:10:43.013Z,18.00
2018-12-17T13:13:17.461Z,20.73
2018-12-17T13:15:51.760Z,16.97
2018-12-17T13:18:26.018Z,20.03
2018-12-17T13:21:00.365Z,22.10
2018-12-17T13:23:34.545Z,17.87
2018-12-17T13:26:08.835Z,19.70
2018-12-17T13:28:43.091Z,17.73
2018-12-17T13:31:17.633Z,18.13
2018-12-17T13:33:53.366Z,16.97
2018-12-17T13:36:27.663Z,17.43
2018-12-17T13:39:02.015Z,17.80
2018-12-17T13:41:36.998Z,17.47
2018-12-17T13:44:11.285Z,22.57
2018-12-17T13:46:45.583Z,18.10
2018-12-17T13:49:19.993Z,19.00
2018-12-17T13:51:59.940Z,21.47
2018-12-17T13:54:34.295Z,19.70
2018-12-17T13:57:08.948Z,19.23
2018-12-17T13:59:44.988Z,21.47
2018-12-17T14:02:19.282Z,17.60
2018-12-17T14:04:53.598Z,19.57
2018-12-17T14:07:27.981Z,20.27
2018-12-17T14:10:07.665Z,15.63
2018-12-17T14:12:42.013Z,18.03
2018-12-17T14:15:18.206Z,16.20
2018-12-17T14:17:56.290Z,14.20
2018-12-17T14:20:36.127Z,17.67
2018-12-17T14:23:10.695Z,15.10
2018-12-17T14:25:45.149Z,16.50
2018-12-17T14:28:20.070Z,16.87
2018-12-17T14:30:54.418Z,16.67
2018-12-17T14:33:28.658Z,16.60
2018-12-17T14:36:09.057Z,17.33
2018-12-17T14:38:44.870Z,15.73
2018-12-17T14:41:19.195Z,16.30
2018-12-17T14:43:55.964Z,17.10
2018-12-17T14:46:34.516Z,17.67
2018-12-17T14:49:08.797Z,12.43
2018-12-17T14:51:44.770Z,15.53
2018-12-17T14:54:19.105Z,16.30
2018-12-17T14:56:53.583Z,16.17
2018-12-17T14:59:29.434Z,12.03
2018-12-17T15:02:03.957Z,12.97
2018-12-17T15:04:38.586Z,14.90
2018-12-17T15:07:16.874Z,10.30
2018-12-17T15:09:51.162Z,14.40
2018-12-17T15:12:25.351Z,12.00
2018-12-17T15:14:59.601Z,13.73
2018-12-17T15:17:34.017Z,14.90
2018-12-17T15:20:09.962Z,14.60
2018-12-17T15:22:44.161Z,14.27
2018-12-17T15:25:18.798Z,21.73
2018-12-17T15:27:54.157Z,18.67
2018-12-17T15:30:28.698Z,23.13
2018-12-17T15:33:03.060Z,24.77
2018-12-17T15:35:38.391Z,23.47
2018-12-17T15:38:12.684Z,34.30
2018-12-17T15:40:46.974Z,26.90
2018-12-17T15:43:21.258Z,25.63
2018-12-17T15:45:55.993Z,23.83
2018-12-17T15:48:30.674Z,26.37
2018-12-17T15:51:09.841Z,25.30
2018-12-17T15:53:44.113Z,27.97
2018-12-17T15:56:18.446Z,29.57
2018-12-17T15:58:52.953Z,28.33
2018-12-17T16:01:27.491Z,35.70
2018-12-17T16:04:01.742Z,28.90
2018-12-17T16:06:36.177Z,28.37
2018-12-17T16:09:10.505Z,29.60
2018-12-17T16:11:44.689Z,28.20
2018-12-17T16:14:19.115Z,31.33
2018-12-17T16:16:53.476Z,36.60
2018-12-17T16:19:27.948Z,34.93
2018-12-17T16:22:02.693Z,36.50
2018-12-17T16:24:37.132Z,26.23
2018-12-17T16:27:11.667Z,31.73
2018-12-17T16:29:46.036Z,25.93
2018-12-17T16:32:20.378Z,34.70
2018-12-17T16:34:54.938Z,32.03
2018-12-17T16:37:29.298Z,33.00
2018-12-17T16:40:04.481Z,25.47
2018-12-17T16:42:38.877Z,27.60
2018-12-17T16:45:13.366Z,29.37
2018-12-17T16:47:47.813Z,29.13
2018-12-17T16:50:22.075Z,26.40
2018-12-17T16:52:56.229Z,24.83
2018-12-17T16:55:30.718Z,26.07
2018-12-17T16:58:05.309Z,40.13
2018-12-17T17:00:39.685Z,34.97
2018-12-17T17:03:14.040Z,24.40
2018-12-17T17:05:48.490Z,30.73
2018-12-17T17:08:22.947Z,38.30
2018-12-17T17:10:57.643Z,24.20
2018-12-17T17:13:32.085Z,26.60
2018-12-17T17:16:06.473Z,27.80
2018-12-17T17:18:40.849Z,27.10
2018-12-17T17:21:15.273Z,24.00
2018-12-17T17:23:49.913Z,20.40
2018-12-17T17:26:24.523Z,19.47
2018-12-17T17:28:58.898Z,29.10
2018-12-17T17:31:33.389Z,26.90
2018-12-17T17:34:08.096Z,27.50
2018-12-17T17:36:42.449Z,20.87
2018-12-17T17:39:16.698Z,21.73
2018-12-17T17:41:52.047Z,21.73
2018-12-17T17:44:26.389Z,29.17
2018-12-17T17:47:00.681Z,24.80
2018-12-17T17:49:35.062Z,20.83
2018-12-17T17:52:09.482Z,27.00
2018-12-17T17:54:43.925Z,30.40
2018-12-17T17:57:18.297Z,23.03
2018-12-17T17:59:52.477Z,29.00
2018-12-17T18:02:26.821Z,24.07
2018-12-17T18:05:01.195Z,23.93
2018-12-17T18:07:35.679Z,21.53
2018-12-17T18:10:14.435Z,24.00
2018-12-17T18:12:48.857Z,22.90
2018-12-17T18:15:23.082Z,22.03
2018-12-17T18:17:57.572Z,24.63
2018-12-17T18:20:36.292Z,20.53
2018-12-17T18:23:10.613Z,20.77
2018-12-17T18:25:44.937Z,24.23
2018-12-17T18:28:19.099Z,23.97
2018-12-17T18:30:53.397Z,23.57
2018-12-17T18:33:28.978Z,24.03
2018-12-17T18:36:03.409Z,35.73
2018-12-17T18:38:37.795Z,27.60
2018-12-17T18:41:13.626Z,26.57
2018-12-17T18:43:47.964Z,22.50
2018-12-17T18:46:22.257Z,21.07
2018-12-17T18:48:56.686Z,22.13
2018-12-17T18:51:31.093Z,21.50
2018-12-17T18:54:06.560Z,19.60
2018-12-17T18:56:40.751Z,22.23
2018-12-17T18:59:15.031Z,27.67
2018-12-17T19:01:49.445Z,30.07
2018-12-17T19:04:23.882Z,22.57
2018-12-17T19:06:59.614Z,20.63
2018-12-17T19:09:34.033Z,28.00
2018-12-17T19:12:08.494Z,25.17
2018-12-17T19:14:42.819Z,28.00
2018-12-17T19:17:17.485Z,28.53
2018-12-17T19:19:51.797Z,27.97
2018-12-17T19:22:26.714Z,25.27
2018-12-17T19:25:01.060Z,23.77
2018-12-17T19:27:36.169Z,27.63
2018-12-17T19:30:10.620Z,25.87
2018-12-17T19:32:45.022Z,23.00
2018-12-17T19:35:19.690Z,23.97
2018-12-17T19:37:54.084Z,25.93
2018-12-17T19:40:28.906Z,27.07
2018-12-17T19:43:03.541Z,35.23
2018-12-17T19:45:39.508Z,30.13
2018-12-17T19:48:14.050Z,26.40
2018-12-17T19:50:48.425Z,31.40
2018-12-17T19:53:23.070Z,30.60
2018-12-17T19:55:58.574Z,25.47
2018-12-17T19:58:32.813Z,30.20
2018-12-17T20:01:07.259Z,29.40
2018-12-17T20:03:42.822Z,27.10
2018-12-17T20:06:17.157Z,32.80
2018-12-17T20:08:53.102Z,30.27
2018-12-17T20:11:28.398Z,28.50
2018-12-17T20:14:02.694Z,34.20
2018-12-17T20:16:37.430Z,28.10
2018-12-17T20:19:11.953Z,27.67
2018-12-17T20:21:46.197Z,32.47
2018-12-17T20:24:20.518Z,31.37
2018-12-17T20:26:55.570Z,34.60
2018-12-17T20:29:29.809Z,29.60
2018-12-17T20:32:04.216Z,31.17
2018-12-17T20:34:39.695Z,34.83
2018-12-17T20:37:15.555Z,26.37
2018-12-17T20:39:49.734Z,30.63
2018-12-17T20:42:24.125Z,31.80
2018-12-17T20:44:58.953Z,32.60
2018-12-17T20:47:33.334Z,33.03
2018-12-17T20:50:08.785Z,25.63
2018-12-17T20:52:42.967Z,33.00
2018-12-17T20:55:18.185Z,39.67
2018-12-17T20:57:52.446Z,33.33
2018-12-17T21:00:26.688Z,30.50
2018-12-17T21:03:01.076Z,35.63
2018-12-17T21:05:35.360Z,28.33
2018-12-17T21:08:10.733Z,33.20
2018-12-17T21:10:45.110Z,30.57
2018-12-17T21:13:20.998Z,37.57
2018-12-17T21:15:55.305Z,35.27
2018-12-17T21:18:29.699Z,33.83
2018-12-17T21:21:04.388Z,24.30
2018-12-17T21:23:39.131Z,30.37
2018-12-17T21:26:13.625Z,32.30
2018-12-17T21:28:47.902Z,29.20
2018-12-17T21:31:22.130Z,28.80
2018-12-17T21:33:56.473Z,32.10
2018-12-17T21:36:31.694Z,27.37
2018-12-17T21:39:07.287Z,42.83
2018-12-17T21:41:42.219Z,32.33
2018-12-17T21:44:17.157Z,29.60
2018-12-17T21:46:52.854Z,33.80
2018-12-17T21:49:27.433Z,34.17
2018-12-17T21:52:02.473Z,30.90
2018-12-17T21:54:36.696Z,30.20
2018-12-17T21:57:11.125Z,38.37
2018-12-17T21:59:45.400Z,33.40
2018-12-17T22:02:19.810Z,31.63
2018-12-17T22:04:56.405Z,28.50
2018-12-17T22:07:30.808Z,27.57
2018-12-17T22:10:05.685Z,27.50
2018-12-17T22:12:40.483Z,30.63
2018-12-17T22:15:15.070Z,30.23
2018-12-17T22:17:49.369Z,22.83
2018-12-17T22:20:24.809Z,25.17
2018-12-17T22:22:59.983Z,24.90
2018-12-17T22:25:34.493Z,23.00
2018-12-17T22:28:08.866Z,24.00
2018-12-17T22:30:43.284Z,26.80
2018-12-17T22:33:19.969Z,24.63
2018-12-17T22:35:55.137Z,21.67
2018-12-17T22:38:29.611Z,24.67
2018-12-17T22:41:04.364Z,24.93
2018-12-17T22:43:38.926Z,26.03
2018-12-17T22:46:13.309Z,24.40
2018-12-17T22:48:47.605Z,27.27
2018-12-17T22:51:21.889Z,32.33
2018-12-17T22:53:56.278Z,22.83
2018-12-17T22:56:32.229Z,38.23
2018-12-17T22:59:06.783Z,36.23
2018-12-17T23:01:41.033Z,39.53
2018-12-17T23:04:15.350Z,33.40
2018-12-17T23:06:50.178Z,39.37
2018-12-17T23:09:23.609Z,25.30
2018-12-17T23:12:09.185Z,22.63
2018-12-17T23:14:55.288Z,20.60
2018-12-17T23:17:41.829Z,23.23
2018-12-17T23:20:17.545Z,20.97
2018-12-17T23:22:53.046Z,36.83
2018-12-17T23:25:28.369Z,25.73
2018-12-17T23:28:02.938Z,26.87
2018-12-17T23:30:37.313Z,23.53
2018-12-17T23:33:11.697Z,25.97
2018-12-17T23:35:46.086Z,16.17
2018-12-17T23:38:20.442Z,21.50
2018-12-17T23:40:54.806Z,25.47
2018-12-17T23:43:29.594Z,21.27
2018-12-17T23:46:03.965Z,24.97
2018-12-17T23:48:39.449Z,17.03
2018-12-17T23:51:13.813Z,22.00
2018-12-17T23:53:48.204Z,18.43
2018-12-17T23:56:22.357Z,19.90
2018-12-17T23:58:56.629Z,22.67
